createdAt,value
2023-05-02T06:01:42.444Z,9.22
2023-05-02T06:02:42.649Z,9.22
2023-05-02T06:03:42.601Z,9.17
2023-05-02T06:04:42.481Z,9.16
2023-05-02T06:05:42.372Z,9.13
2023-05-02T06:06:42.374Z,9.16
2023-05-02T06:07:42.390Z,9.13
2023-05-02T06:08:42.340Z,9.13
2023-05-02T06:09:42.338Z,9.13
2023-05-02T06:10:42.316Z,9.16
2023-05-02T06:11:42.318Z,9.17
2023-05-02T06:12:42.295Z,9.10
2023-05-02T06:13:42.297Z,9.15
2023-05-02T06:14:42.268Z,9.17
2023-05-02T06:15:42.311Z,9.12
2023-05-02T06:16:42.511Z,9.16
2023-05-02T06:17:42.333Z,9.19
2023-05-02T06:18:42.228Z,9.24
2023-05-02T06:19:42.223Z,9.23
2023-05-02T06:20:42.203Z,9.20
2023-05-02T06:21:42.202Z,9.17
2023-05-02T06:22:42.189Z,9.17
2023-05-02T06:23:42.172Z,9.15
2023-05-02T06:24:42.160Z,9.19
2023-05-02T06:25:42.148Z,9.22
2023-05-02T06:26:42.135Z,9.30
2023-05-02T06:27:42.127Z,9.32
2023-05-02T06:28:42.111Z,9.34
2023-05-02T06:29:42.101Z,9.31
2023-05-02T06:30:42.097Z,9.32
2023-05-02T06:31:42.120Z,9.32
2023-05-02T06:32:42.081Z,9.32
2023-05-02T06:33:42.087Z,9.38
2023-05-02T06:34:42.042Z,9.42
2023-05-02T06:35:42.033Z,9.48
2023-05-02T06:36:42.022Z,9.49
2023-05-02T06:37:42.011Z,9.49
2023-05-02T06:38:41.995Z,9.41
2023-05-02T06:39:41.984Z,9.44
2023-05-02T06:40:41.981Z,9.52
2023-05-02T06:41:41.973Z,9.44
2023-05-02T06:42:41.964Z,9.44
2023-05-02T06:43:41.953Z,9.52
2023-05-02T06:44:41.927Z,9.58
2023-05-02T06:45:41.919Z,9.59
2023-05-02T06:46:41.990Z,9.59
2023-05-02T06:47:41.937Z,9.63
2023-05-02T06:48:41.882Z,9.65
2023-05-02T06:49:41.903Z,9.58
2023-05-02T06:50:41.858Z,9.52
2023-05-02T06:51:41.873Z,9.49
2023-05-02T06:52:41.841Z,9.56
2023-05-02T06:53:41.849Z,9.59
2023-05-02T06:54:41.822Z,9.59
2023-05-02T06:55:41.806Z,9.63
2023-05-02T06:56:41.791Z,9.70
2023-05-02T06:57:41.792Z,9.73
2023-05-02T06:58:41.798Z,9.71
2023-05-02T06:59:41.761Z,9.65
2023-05-02T07:00:41.773Z,9.55
2023-05-02T07:01:41.941Z,9.45
2023-05-02T07:02:41.803Z,9.55
2023-05-02T07:03:41.770Z,9.59
2023-05-02T07:04:41.747Z,9.68
2023-05-02T07:05:41.720Z,9.67
2023-05-02T07:06:41.736Z,9.59
2023-05-02T07:07:41.683Z,9.70
2023-05-02T07:08:41.657Z,9.73
2023-05-02T07:09:41.658Z,9.86
2023-05-02T07:10:41.637Z,9.95
2023-05-02T07:11:41.631Z,10.01
2023-05-02T07:12:41.621Z,10.10
2023-05-02T07:13:41.623Z,10.26
2023-05-02T07:14:41.603Z,10.26
2023-05-02T07:15:41.586Z,10.32
2023-05-02T07:16:41.618Z,10.39
2023-05-02T07:17:41.601Z,10.49
2023-05-02T07:18:41.548Z,10.52
2023-05-02T07:19:43.923Z,10.58
2023-05-02T07:20:41.525Z,10.66
2023-05-02T07:21:41.534Z,10.78
2023-05-02T07:22:41.523Z,10.65
2023-05-02T07:23:41.495Z,10.68
2023-05-02T07:24:41.516Z,10.81
2023-05-02T07:25:41.473Z,10.84
2023-05-02T07:26:41.457Z,10.94
2023-05-02T07:27:41.456Z,10.95
2023-05-02T07:28:41.434Z,11.01
2023-05-02T07:29:41.427Z,10.88
2023-05-02T07:30:41.421Z,10.73
2023-05-02T07:31:41.423Z,10.75
2023-05-02T07:32:41.461Z,10.81
2023-05-02T07:33:41.381Z,10.87
2023-05-02T07:34:41.363Z,10.93
2023-05-02T07:35:41.377Z,10.95
2023-05-02T07:36:41.349Z,11.01
2023-05-02T07:37:41.364Z,10.93
2023-05-02T07:38:41.324Z,10.88
2023-05-02T07:39:41.318Z,10.83
2023-05-02T07:40:41.308Z,10.69
2023-05-02T07:41:41.287Z,10.68
2023-05-02T07:42:41.274Z,10.58
2023-05-02T07:43:41.265Z,10.58
2023-05-02T07:44:41.253Z,10.49
2023-05-02T07:45:41.257Z,10.51
2023-05-02T07:46:41.356Z,10.52
2023-05-02T07:47:41.260Z,10.49
2023-05-02T07:48:41.205Z,10.43
2023-05-02T07:49:41.200Z,10.36
2023-05-02T07:50:41.187Z,10.38
2023-05-02T07:51:41.176Z,10.39
2023-05-02T07:52:41.172Z,10.39
2023-05-02T07:53:41.179Z,10.43
2023-05-02T07:54:41.146Z,10.38
2023-05-02T07:55:41.132Z,10.46
2023-05-02T07:56:41.119Z,10.35
2023-05-02T07:57:41.118Z,10.36
2023-05-02T07:58:41.102Z,10.26
2023-05-02T07:59:41.090Z,10.17
2023-05-02T08:00:41.076Z,10.20
2023-05-02T08:01:41.078Z,10.26
2023-05-02T08:02:41.121Z,10.35
2023-05-02T08:03:41.191Z,10.17
2023-05-02T08:04:41.152Z,10.25
2023-05-02T08:05:41.024Z,10.25
2023-05-02T08:06:41.095Z,10.26
2023-05-02T08:07:40.999Z,10.24
2023-05-02T08:08:41.009Z,10.26
2023-05-02T08:09:40.999Z,10.38
2023-05-02T08:10:40.978Z,10.47
2023-05-02T08:11:40.959Z,10.52
2023-05-02T08:12:40.944Z,10.49
2023-05-02T08:13:40.933Z,10.29
2023-05-02T08:14:40.936Z,10.25
2023-05-02T08:15:40.944Z,10.18
2023-05-02T08:16:41.042Z,10.07
2023-05-02T08:17:40.926Z,10.07
2023-05-02T08:18:40.879Z,10.13
2023-05-02T08:19:40.869Z,10.20
2023-05-02T08:20:40.865Z,10.31
2023-05-02T08:21:40.847Z,10.54
2023-05-02T08:22:40.849Z,10.62
2023-05-02T08:23:40.829Z,10.81
2023-05-02T08:24:41.042Z,10.83
2023-05-02T08:25:40.829Z,10.87
2023-05-02T08:26:40.819Z,11.13
2023-05-02T08:27:40.790Z,12.22
2023-05-02T08:28:40.773Z,13.14
2023-05-02T08:29:40.761Z,13.61
2023-05-02T08:30:40.757Z,13.66
2023-05-02T08:31:40.812Z,13.31
2023-05-02T08:32:40.744Z,13.07
2023-05-02T08:33:40.717Z,12.96
2023-05-02T08:34:40.701Z,12.71
2023-05-02T08:35:40.690Z,12.66
2023-05-02T08:36:40.708Z,12.54
2023-05-02T08:37:40.756Z,12.21
2023-05-02T08:38:40.661Z,11.87
2023-05-02T08:39:40.648Z,11.64
2023-05-02T08:40:42.850Z,11.45
2023-05-02T08:41:40.650Z,11.21
2023-05-02T08:42:40.608Z,11.20
2023-05-02T08:43:40.603Z,11.21
2023-05-02T08:44:40.586Z,11.23
2023-05-02T08:45:40.586Z,11.38
2023-05-02T08:46:40.575Z,11.54
2023-05-02T08:47:40.575Z,11.74
2023-05-02T08:48:40.553Z,11.94
2023-05-02T08:49:40.528Z,12.07
2023-05-02T08:50:40.532Z,12.00
2023-05-02T08:51:42.288Z,12.03
2023-05-02T08:52:40.499Z,12.19
2023-05-02T08:53:40.483Z,12.36
2023-05-02T08:54:40.473Z,12.37
2023-05-02T08:55:40.459Z,12.29
2023-05-02T08:56:40.452Z,12.04
2023-05-02T08:57:40.459Z,12.05
2023-05-02T08:58:40.426Z,12.21
2023-05-02T08:59:40.418Z,12.44
2023-05-02T09:00:40.404Z,12.40
2023-05-02T09:01:40.580Z,12.73
2023-05-02T09:02:40.420Z,12.84
2023-05-02T09:03:40.372Z,12.99
2023-05-02T09:04:40.541Z,13.03
2023-05-02T09:05:40.347Z,12.70
2023-05-02T09:06:41.445Z,12.76
2023-05-02T09:07:40.327Z,12.70
2023-05-02T09:08:40.334Z,12.70
2023-05-02T09:09:40.303Z,12.61
2023-05-02T09:10:40.316Z,12.44
2023-05-02T09:11:40.301Z,12.26
2023-05-02T09:12:40.480Z,12.34
2023-05-02T09:13:40.293Z,12.37
2023-05-02T09:14:40.264Z,12.37
2023-05-02T09:15:40.268Z,12.74
2023-05-02T09:16:40.471Z,12.87
2023-05-02T09:17:40.506Z,12.77
2023-05-02T09:18:40.381Z,12.77
2023-05-02T09:19:40.298Z,12.80
2023-05-02T09:20:40.323Z,12.61
2023-05-02T09:21:40.355Z,12.81
2023-05-02T09:22:40.328Z,14.20
2023-05-02T09:23:40.150Z,14.44
2023-05-02T09:24:40.141Z,14.27
2023-05-02T09:25:40.129Z,14.08
2023-05-02T09:26:40.119Z,13.66
2023-05-02T09:27:40.256Z,13.72
2023-05-02T09:28:40.095Z,13.91
2023-05-02T09:29:40.197Z,14.11
2023-05-02T09:30:40.112Z,13.68
2023-05-02T09:32:40.167Z,13.27
2023-05-02T09:33:40.063Z,13.36
2023-05-02T09:34:40.046Z,13.39
2023-05-02T09:35:40.019Z,13.39
2023-05-02T09:36:40.013Z,13.28
2023-05-02T09:37:39.996Z,12.96
2023-05-02T09:38:39.986Z,12.81
2023-05-02T09:39:39.974Z,12.87
2023-05-02T09:40:39.963Z,13.38
2023-05-02T09:41:39.951Z,14.12
2023-05-02T09:42:39.940Z,14.24
2023-05-02T09:43:39.936Z,14.61
2023-05-02T09:44:39.941Z,14.69
2023-05-02T09:45:39.938Z,14.59
2023-05-02T09:46:40.079Z,14.38
2023-05-02T09:47:39.896Z,14.17
2023-05-02T09:48:39.875Z,13.88
2023-05-02T09:49:39.879Z,13.61
2023-05-02T09:50:39.852Z,13.35
2023-05-02T09:51:39.844Z,13.13
2023-05-02T09:52:39.833Z,12.79
2023-05-02T09:53:39.817Z,12.62
2023-05-02T09:54:39.814Z,12.58
2023-05-02T09:55:39.793Z,12.51
2023-05-02T09:56:39.788Z,12.52
2023-05-02T09:57:39.934Z,12.40
2023-05-02T09:58:40.091Z,12.51
2023-05-02T09:59:39.760Z,12.55
2023-05-02T10:00:39.745Z,12.52
2023-05-02T10:01:39.798Z,13.16
2023-05-02T10:02:40.071Z,13.86
2023-05-02T10:03:39.838Z,14.20
2023-05-02T10:04:39.995Z,14.30
2023-05-02T10:05:39.689Z,14.46
2023-05-02T10:06:39.713Z,14.27
2023-05-02T10:07:39.662Z,14.35
2023-05-02T10:08:39.659Z,13.99
2023-05-02T10:09:39.641Z,13.80
2023-05-02T10:10:39.653Z,13.88
2023-05-02T10:11:39.621Z,13.96
2023-05-02T10:12:39.613Z,13.73
2023-05-02T10:13:39.921Z,13.50
2023-05-02T10:14:39.600Z,13.12
2023-05-02T10:15:39.596Z,12.84
2023-05-02T10:16:39.563Z,12.31
2023-05-02T10:17:39.709Z,12.31
2023-05-02T10:18:39.544Z,12.22
2023-05-02T10:19:39.534Z,12.11
2023-05-02T10:20:39.528Z,12.21
2023-05-02T10:21:39.507Z,12.12
2023-05-02T10:22:39.653Z,12.18
2023-05-02T10:23:39.487Z,12.43
2023-05-02T10:24:39.476Z,12.48
2023-05-02T10:25:39.462Z,12.55
2023-05-02T10:26:39.455Z,12.67
2023-05-02T10:27:39.442Z,12.95
2023-05-02T10:28:39.431Z,13.04
2023-05-02T10:29:39.421Z,13.43
2023-05-02T10:30:39.407Z,13.76
2023-05-02T10:31:39.429Z,13.47
2023-05-02T10:32:39.470Z,13.31
2023-05-02T10:33:39.398Z,13.43
2023-05-02T10:34:39.360Z,13.50
2023-05-02T10:35:39.351Z,13.54
2023-05-02T10:36:39.350Z,13.75
2023-05-02T10:37:39.332Z,13.88
2023-05-02T10:38:39.344Z,14.02
2023-05-02T10:39:39.325Z,14.11
2023-05-02T10:40:39.303Z,14.17
2023-05-02T10:41:39.290Z,14.34
2023-05-02T10:42:39.291Z,14.38
2023-05-02T10:43:39.264Z,14.60
2023-05-02T10:44:39.262Z,15.20
2023-05-02T10:45:39.238Z,15.56
2023-05-02T10:46:39.273Z,16.34
2023-05-02T10:47:39.266Z,15.85
2023-05-02T10:48:39.205Z,15.15
2023-05-02T10:49:39.216Z,14.82
2023-05-02T10:50:39.183Z,14.56
2023-05-02T10:51:39.198Z,14.30
2023-05-02T10:52:39.160Z,14.31
2023-05-02T10:53:39.169Z,14.19
2023-05-02T10:54:39.149Z,13.75
2023-05-02T10:55:39.136Z,13.69
2023-05-02T10:56:39.114Z,13.71
2023-05-02T10:57:39.101Z,13.73
2023-05-02T10:58:39.094Z,13.46
2023-05-02T10:59:39.104Z,12.77
2023-05-02T11:00:39.111Z,12.43
2023-05-02T11:01:39.383Z,12.31
2023-05-02T11:02:39.094Z,12.43
2023-05-02T11:03:39.106Z,12.46
2023-05-02T11:04:39.067Z,12.54
2023-05-02T11:05:39.038Z,12.44
2023-05-02T11:06:39.036Z,12.38
2023-05-02T11:07:38.990Z,12.36
2023-05-02T11:08:39.004Z,12.44
2023-05-02T11:09:38.969Z,12.23
2023-05-02T11:10:38.959Z,12.30
2023-05-02T11:11:38.957Z,12.30
2023-05-02T11:12:38.941Z,12.38
2023-05-02T11:13:38.924Z,12.46
2023-05-02T11:14:38.916Z,12.44
2023-05-02T11:15:38.902Z,12.40
2023-05-02T11:16:38.915Z,12.49
2023-05-02T11:17:38.898Z,12.49
2023-05-02T11:18:38.879Z,12.61
2023-05-02T11:19:38.867Z,12.62
2023-05-02T11:20:38.847Z,12.49
2023-05-02T11:21:38.854Z,12.59
2023-05-02T11:22:38.825Z,12.61
2023-05-02T11:23:38.811Z,12.61
2023-05-02T11:24:38.834Z,12.99
2023-05-02T11:25:38.789Z,13.25
2023-05-02T11:26:38.780Z,13.25
2023-05-02T11:27:38.778Z,13.27
2023-05-02T11:28:38.755Z,13.35
2023-05-02T11:29:38.756Z,13.55
2023-05-02T11:30:38.742Z,13.81
2023-05-02T11:31:38.816Z,13.83
2023-05-02T11:32:38.914Z,13.72
2023-05-02T11:33:38.702Z,13.76
2023-05-02T11:34:38.714Z,13.80
2023-05-02T11:35:38.676Z,13.93
2023-05-02T11:36:38.679Z,13.59
2023-05-02T11:37:38.684Z,13.51
2023-05-02T11:38:38.672Z,13.51
2023-05-02T11:39:38.642Z,13.46
2023-05-02T11:40:38.628Z,13.61
2023-05-02T11:41:38.624Z,13.81
2023-05-02T11:42:38.600Z,13.88
2023-05-02T11:43:38.590Z,13.83
2023-05-02T11:44:38.572Z,13.48
2023-05-02T11:45:38.592Z,13.62
2023-05-02T11:46:38.657Z,13.63
2023-05-02T11:47:38.588Z,14.01
2023-05-02T11:48:38.583Z,14.24
2023-05-02T11:49:38.522Z,14.39
2023-05-02T11:50:40.070Z,14.52
2023-05-02T11:51:38.491Z,14.54
2023-05-02T11:52:38.489Z,14.61
2023-05-02T11:53:38.525Z,14.54
2023-05-02T11:54:38.474Z,14.48
2023-05-02T11:55:38.451Z,14.49
2023-05-02T11:56:38.449Z,14.63
2023-05-02T11:57:38.428Z,15.01
2023-05-02T11:58:38.429Z,15.25
2023-05-02T11:59:38.404Z,15.73
2023-05-02T12:00:38.411Z,15.96
2023-05-02T12:01:38.384Z,15.81
2023-05-02T12:02:38.419Z,15.09
2023-05-02T12:03:38.601Z,14.74
2023-05-02T12:04:38.355Z,14.78
2023-05-02T12:05:38.411Z,15.05
2023-05-02T12:06:38.361Z,14.72
2023-05-02T12:07:38.351Z,14.36
2023-05-02T12:08:38.314Z,14.23
2023-05-02T12:09:38.397Z,14.08
2023-05-02T12:10:38.293Z,14.01
2023-05-02T12:11:38.319Z,14.24
2023-05-02T12:12:38.425Z,14.53
2023-05-02T12:13:38.251Z,14.94
2023-05-02T12:14:38.247Z,14.94
2023-05-02T12:15:38.238Z,14.49
2023-05-02T12:16:38.344Z,14.24
2023-05-02T12:17:38.271Z,14.39
2023-05-02T12:18:38.300Z,14.17
2023-05-02T12:19:38.188Z,14.12
2023-05-02T12:20:38.174Z,14.13
2023-05-02T12:21:38.172Z,13.98
2023-05-02T12:22:38.326Z,13.87
2023-05-02T12:23:38.145Z,13.80
2023-05-02T12:24:38.136Z,13.68
2023-05-02T12:25:38.142Z,13.72
2023-05-02T12:26:38.115Z,13.81
2023-05-02T12:27:38.129Z,14.01
2023-05-02T12:28:38.095Z,14.12
2023-05-02T12:29:38.074Z,14.41
2023-05-02T12:30:38.069Z,14.26
2023-05-02T12:31:38.099Z,14.21
2023-05-02T12:32:38.090Z,14.49
2023-05-02T12:33:38.058Z,14.53
2023-05-02T12:34:38.032Z,14.39
2023-05-02T12:35:38.011Z,14.30
2023-05-02T12:36:38.011Z,14.49
2023-05-02T12:37:38.092Z,14.82
2023-05-02T12:38:37.969Z,15.22
2023-05-02T12:39:37.970Z,15.51
2023-05-02T12:40:37.950Z,15.67
2023-05-02T12:41:37.988Z,15.73
2023-05-02T12:42:37.950Z,16.04
2023-05-02T12:43:38.251Z,16.06
2023-05-02T12:44:37.918Z,15.70
2023-05-02T12:45:37.901Z,15.58
2023-05-02T12:46:37.938Z,15.23
2023-05-02T12:47:37.904Z,15.09
2023-05-02T12:48:37.863Z,14.71
2023-05-02T12:49:37.863Z,14.42
2023-05-02T12:50:37.839Z,14.24
2023-05-02T12:51:37.830Z,14.21
2023-05-02T12:52:37.821Z,14.16
2023-05-02T12:53:37.812Z,14.23
2023-05-02T12:54:37.974Z,14.04
2023-05-02T12:55:37.784Z,13.72
2023-05-02T12:56:37.773Z,13.65
2023-05-02T12:57:37.786Z,13.72
2023-05-02T12:58:37.755Z,13.93
2023-05-02T12:59:37.747Z,14.04
2023-05-02T13:00:37.835Z,14.02
2023-05-02T13:01:37.909Z,14.06
2023-05-02T13:02:37.746Z,13.93
2023-05-02T13:03:37.747Z,14.01
2023-05-02T13:04:37.686Z,14.05
2023-05-02T13:05:37.676Z,13.88
2023-05-02T13:06:37.995Z,13.61
2023-05-02T13:07:37.673Z,13.43
2023-05-02T13:08:37.653Z,13.41
2023-05-02T13:09:37.692Z,13.51
2023-05-02T13:10:37.635Z,13.47
2023-05-02T13:11:37.660Z,13.25
2023-05-02T13:12:37.596Z,13.19
2023-05-02T13:13:37.602Z,13.29
2023-05-02T13:14:37.680Z,13.29
2023-05-02T13:15:37.568Z,13.17
2023-05-02T13:16:37.682Z,12.99
2023-05-02T13:17:37.692Z,13.07
2023-05-02T13:18:37.570Z,13.17
2023-05-02T13:19:40.521Z,13.27
2023-05-02T13:20:38.535Z,13.17
2023-05-02T13:21:37.494Z,13.14
2023-05-02T13:22:37.488Z,13.14
2023-05-02T13:23:37.469Z,13.29
2023-05-02T13:24:37.460Z,13.44
2023-05-02T13:25:37.453Z,13.68
2023-05-02T13:26:37.441Z,13.68
2023-05-02T13:27:37.435Z,13.68
2023-05-02T13:28:37.433Z,13.79
2023-05-02T13:29:37.430Z,13.99
2023-05-02T13:30:37.428Z,14.08
2023-05-02T13:31:37.450Z,14.49
2023-05-02T13:32:37.452Z,14.86
2023-05-02T13:33:37.373Z,15.01
2023-05-02T13:34:37.354Z,15.78
2023-05-02T13:35:37.345Z,17.00
2023-05-02T13:36:37.322Z,17.33
2023-05-02T13:37:37.319Z,16.75
2023-05-02T13:38:37.320Z,16.23
2023-05-02T13:39:37.292Z,15.59
2023-05-02T13:40:37.285Z,15.15
2023-05-02T13:41:37.272Z,14.60
2023-05-02T13:42:37.257Z,14.12
2023-05-02T13:43:37.251Z,13.84
2023-05-02T13:44:37.240Z,13.61
2023-05-02T13:45:37.263Z,13.25
2023-05-02T13:46:37.363Z,13.01
2023-05-02T13:47:38.338Z,12.99
2023-05-02T13:48:37.197Z,12.84
2023-05-02T13:49:37.185Z,12.69
2023-05-02T13:50:37.172Z,12.59
2023-05-02T13:51:37.168Z,12.63
2023-05-02T13:52:37.301Z,12.76
2023-05-02T13:53:37.138Z,12.77
2023-05-02T13:54:37.130Z,12.79
2023-05-02T13:55:37.123Z,12.79
2023-05-02T13:56:37.102Z,12.84
2023-05-02T13:57:37.098Z,12.84
2023-05-02T13:58:37.077Z,12.87
2023-05-02T13:59:37.094Z,13.03
2023-05-02T14:00:37.059Z,13.12
2023-05-02T14:01:37.095Z,13.25
2023-05-02T14:02:37.110Z,13.39
2023-05-02T14:03:37.082Z,13.57
2023-05-02T14:04:37.010Z,13.72
2023-05-02T14:05:37.002Z,13.79
2023-05-02T14:06:37.025Z,14.01
2023-05-02T14:07:36.983Z,14.35
2023-05-02T14:08:36.970Z,14.44
2023-05-02T14:09:36.959Z,14.54
2023-05-02T14:10:36.947Z,14.49
2023-05-02T14:11:36.937Z,14.41
2023-05-02T14:12:36.938Z,14.45
2023-05-02T14:13:36.916Z,14.78
2023-05-02T14:14:36.899Z,15.28
2023-05-02T14:15:36.910Z,15.43
2023-05-02T14:16:37.061Z,15.64
2023-05-02T14:17:36.919Z,15.85
2023-05-02T14:18:36.863Z,15.62
2023-05-02T14:19:36.872Z,15.13
2023-05-02T14:20:36.840Z,14.90
2023-05-02T14:21:36.827Z,15.07
2023-05-02T14:22:36.827Z,15.13
2023-05-02T14:23:36.808Z,14.85
2023-05-02T14:24:36.803Z,14.53
2023-05-02T14:25:36.788Z,14.30
2023-05-02T14:26:36.772Z,14.53
2023-05-02T14:27:36.757Z,14.74
2023-05-02T14:28:38.211Z,14.86
2023-05-02T14:29:36.749Z,14.91
2023-05-02T14:30:36.734Z,14.97
2023-05-02T14:31:36.820Z,14.69
2023-05-02T14:32:36.727Z,14.38
2023-05-02T14:33:36.714Z,13.94
2023-05-02T14:34:36.680Z,13.93
2023-05-02T14:35:36.669Z,13.91
2023-05-02T14:36:36.654Z,13.71
2023-05-02T14:37:36.653Z,13.59
2023-05-02T14:38:36.635Z,13.61
2023-05-02T14:39:36.644Z,13.59
2023-05-02T14:40:36.608Z,13.57
2023-05-02T14:41:36.600Z,13.50
2023-05-02T14:42:36.612Z,13.48
2023-05-02T14:43:36.578Z,13.31
2023-05-02T14:44:36.582Z,13.16
2023-05-02T14:45:36.558Z,12.99
2023-05-02T14:46:36.575Z,13.12
2023-05-02T14:47:36.581Z,13.13
2023-05-02T14:48:36.522Z,13.12
2023-05-02T14:49:36.574Z,13.03
2023-05-02T14:50:36.502Z,13.09
2023-05-02T14:51:36.488Z,13.17
2023-05-02T14:52:36.533Z,13.35
2023-05-02T14:53:36.482Z,13.32
2023-05-02T14:54:36.454Z,13.38
2023-05-02T14:55:36.448Z,13.29
2023-05-02T14:56:36.434Z,13.31
2023-05-02T14:57:36.417Z,13.50
2023-05-02T14:58:36.406Z,13.59
2023-05-02T14:59:36.471Z,13.51
2023-05-02T15:00:36.393Z,13.46
2023-05-02T15:01:36.388Z,13.28
2023-05-02T15:02:36.506Z,13.17
2023-05-02T15:03:46.027Z,12.96
2023-05-02T15:04:37.418Z,12.85
2023-05-02T15:05:36.379Z,12.77
2023-05-02T15:06:37.077Z,12.62
2023-05-02T15:07:36.311Z,12.59
2023-05-02T15:08:37.321Z,12.51
2023-05-02T15:09:36.293Z,12.23
2023-05-02T15:10:36.273Z,12.19
2023-05-02T15:11:36.261Z,12.18
2023-05-02T15:12:36.257Z,12.22
2023-05-02T15:13:36.239Z,12.26
2023-05-02T15:14:36.229Z,12.37
2023-05-02T15:15:36.219Z,12.55
2023-05-02T15:16:36.220Z,12.67
2023-05-02T15:17:36.610Z,12.67
2023-05-02T15:18:36.192Z,12.66
2023-05-02T15:19:36.175Z,12.51
2023-05-02T15:20:36.163Z,12.55
2023-05-02T15:21:36.179Z,12.51
2023-05-02T15:22:36.156Z,12.56
2023-05-02T15:23:36.131Z,12.55
2023-05-02T15:24:36.129Z,12.79
2023-05-02T15:25:36.109Z,12.95
2023-05-02T15:26:36.097Z,13.16
2023-05-02T15:27:36.196Z,13.73
2023-05-02T15:28:36.087Z,14.12
2023-05-02T15:29:36.065Z,14.02
2023-05-02T15:30:36.131Z,14.09
2023-05-02T15:31:36.068Z,14.01
2023-05-02T15:32:36.206Z,14.01
2023-05-02T15:33:38.016Z,13.96
2023-05-02T15:34:36.077Z,13.87
2023-05-02T15:35:36.079Z,13.81
2023-05-02T15:36:35.985Z,13.83
2023-05-02T15:37:36.025Z,13.84
2023-05-02T15:38:38.129Z,13.79
2023-05-02T15:39:35.952Z,13.66
2023-05-02T15:40:35.968Z,13.75
2023-05-02T15:41:35.931Z,13.69
2023-05-02T15:42:36.798Z,13.65
2023-05-02T15:43:35.913Z,13.54
2023-05-02T15:44:35.988Z,13.65
2023-05-02T15:45:36.183Z,13.68
2023-05-02T15:46:36.073Z,13.69
2023-05-02T15:47:36.100Z,13.87
2023-05-02T15:48:35.977Z,14.21
2023-05-02T15:49:35.916Z,15.31
2023-05-02T15:50:35.908Z,16.14
2023-05-02T15:51:35.857Z,16.96
2023-05-02T15:52:35.861Z,16.99
2023-05-02T15:53:36.003Z,16.67
2023-05-02T15:54:35.789Z,16.37
2023-05-02T15:55:35.774Z,16.23
2023-05-02T15:56:35.770Z,16.14
2023-05-02T15:57:35.747Z,16.59
2023-05-02T15:58:35.741Z,17.25
2023-05-02T15:59:35.729Z,17.33
2023-05-02T16:00:35.719Z,17.22
2023-05-02T16:01:35.763Z,17.35
2023-05-02T16:02:35.694Z,17.60
2023-05-02T16:03:35.767Z,16.77
2023-05-02T16:04:35.750Z,15.98
2023-05-02T16:05:35.661Z,15.27
2023-05-02T16:06:35.687Z,14.66
2023-05-02T16:07:35.637Z,14.24
2023-05-02T16:08:35.627Z,13.96
2023-05-02T16:09:35.692Z,13.75
2023-05-02T16:10:35.726Z,13.66
2023-05-02T16:11:35.586Z,13.57
2023-05-02T16:12:35.579Z,13.44
2023-05-02T16:13:35.564Z,13.25
2023-05-02T16:14:35.575Z,13.21
2023-05-02T16:15:35.543Z,13.25
2023-05-02T16:16:35.753Z,13.24
2023-05-02T16:17:35.538Z,13.27
2023-05-02T16:18:35.531Z,13.29
2023-05-02T16:19:35.525Z,13.24
2023-05-02T16:20:35.547Z,13.29
2023-05-02T16:21:35.532Z,13.72
2023-05-02T16:22:35.508Z,14.11
2023-05-02T16:23:35.534Z,14.04
2023-05-02T16:24:35.592Z,13.75
2023-05-02T16:25:35.596Z,13.59
2023-05-02T16:26:35.535Z,13.32
2023-05-02T16:27:35.408Z,13.35
2023-05-02T16:28:35.399Z,13.44
2023-05-02T16:29:35.397Z,13.44
2023-05-02T16:30:35.376Z,13.24
2023-05-02T16:31:35.412Z,13.79
2023-05-02T16:32:35.380Z,14.41
2023-05-02T16:33:35.343Z,14.39
2023-05-02T16:34:35.330Z,14.17
2023-05-02T16:35:35.319Z,13.94
2023-05-02T16:36:35.317Z,13.71
2023-05-02T16:37:35.388Z,14.11
2023-05-02T16:38:35.298Z,13.87
2023-05-02T16:39:35.280Z,13.59
2023-05-02T16:40:35.285Z,13.80
2023-05-02T16:41:35.297Z,14.60
2023-05-02T16:42:35.267Z,15.19
2023-05-02T16:43:35.251Z,14.85
2023-05-02T16:44:35.229Z,14.31
2023-05-02T16:45:35.211Z,14.12
2023-05-02T16:46:35.275Z,14.01
2023-05-02T16:47:35.211Z,13.83
2023-05-02T16:48:35.382Z,13.71
2023-05-02T16:49:35.172Z,13.79
2023-05-02T16:50:35.160Z,13.76
2023-05-02T16:51:35.149Z,13.80
2023-05-02T16:52:35.135Z,13.83
2023-05-02T16:53:35.131Z,13.84
2023-05-02T16:54:35.109Z,13.79
2023-05-02T16:55:35.105Z,13.68
2023-05-02T16:56:35.089Z,13.59
2023-05-02T16:57:35.097Z,13.54
2023-05-02T16:58:35.067Z,13.43
2023-05-02T16:59:35.055Z,13.35
2023-05-02T17:00:35.094Z,13.16
2023-05-02T17:01:35.115Z,12.95
2023-05-02T17:02:35.142Z,12.89
2023-05-02T17:03:35.040Z,12.87
2023-05-02T17:04:35.009Z,12.84
2023-05-02T17:05:35.147Z,12.79
2023-05-02T17:06:35.025Z,12.63
2023-05-02T17:07:34.973Z,12.46
2023-05-02T17:08:34.950Z,12.40
2023-05-02T17:09:34.971Z,12.37
2023-05-02T17:10:34.929Z,12.36
2023-05-02T17:11:34.923Z,12.30
2023-05-02T17:12:34.909Z,12.31
2023-05-02T17:13:34.929Z,12.23
2023-05-02T17:14:34.892Z,12.22
2023-05-02T17:15:34.867Z,12.07
2023-05-02T17:16:35.052Z,11.97
2023-05-02T17:17:34.850Z,11.85
2023-05-02T17:18:34.855Z,11.87
2023-05-02T17:19:34.844Z,11.84
2023-05-02T17:20:34.826Z,11.72
2023-05-02T17:21:34.807Z,11.60
2023-05-02T17:22:34.806Z,11.51
2023-05-02T17:23:34.788Z,11.41
2023-05-02T17:24:34.772Z,11.36
2023-05-02T17:25:34.787Z,11.35
2023-05-02T17:26:34.752Z,11.33
2023-05-02T17:27:34.743Z,11.36
2023-05-02T17:28:34.732Z,11.53
2023-05-02T17:29:34.741Z,11.49
2023-05-02T17:30:34.714Z,11.41
2023-05-02T17:31:34.766Z,11.41
2023-05-02T17:32:34.718Z,11.46
2023-05-02T17:33:34.690Z,11.51
2023-05-02T17:34:34.671Z,11.60
2023-05-02T17:35:34.667Z,11.57
2023-05-02T17:36:34.660Z,11.66
2023-05-02T17:37:34.637Z,11.69
2023-05-02T17:38:34.626Z,11.66
2023-05-02T17:39:34.629Z,11.59
2023-05-02T17:40:36.096Z,11.63
2023-05-02T17:41:34.780Z,11.63
2023-05-02T17:42:34.575Z,11.54
2023-05-02T17:43:34.565Z,11.60
2023-05-02T17:44:34.564Z,11.60
2023-05-02T17:45:34.615Z,11.63
2023-05-02T17:46:34.563Z,11.62
2023-05-02T17:47:34.583Z,11.64
2023-05-02T17:48:34.499Z,11.57
2023-05-02T17:49:34.490Z,11.56
2023-05-02T17:50:34.481Z,11.54
2023-05-02T17:51:34.476Z,11.51
2023-05-02T17:52:34.457Z,11.45
2023-05-02T17:53:34.443Z,11.41
2023-05-02T17:54:34.469Z,11.33
2023-05-02T17:55:34.438Z,11.33
2023-05-02T17:56:34.444Z,11.36
2023-05-02T17:57:34.422Z,11.33
2023-05-02T17:58:34.395Z,11.24
2023-05-02T17:59:34.386Z,11.23
2023-05-02T18:00:34.368Z,11.19
2023-05-02T18:01:34.444Z,11.16
2023-05-02T18:02:34.387Z,11.13
2023-05-02T18:03:34.421Z,11.08
2023-05-02T18:04:34.334Z,10.95
2023-05-02T18:05:34.339Z,10.86
2023-05-02T18:06:34.373Z,10.86
2023-05-02T18:07:34.305Z,10.78
2023-05-02T18:08:34.289Z,10.72
2023-05-02T18:09:34.270Z,10.63
2023-05-02T18:10:34.256Z,10.57
2023-05-02T18:11:34.243Z,10.57
2023-05-02T18:12:34.242Z,10.49
2023-05-02T18:13:36.167Z,10.46
2023-05-02T18:14:34.211Z,10.43
2023-05-02T18:15:34.201Z,10.43
2023-05-02T18:16:34.275Z,10.42
2023-05-02T18:17:34.400Z,10.38
2023-05-02T18:18:34.168Z,10.31
2023-05-02T18:19:34.159Z,10.31
2023-05-02T18:20:34.148Z,10.28
2023-05-02T18:21:34.165Z,10.25
2023-05-02T18:22:34.233Z,10.20
2023-05-02T18:23:34.114Z,10.16
2023-05-02T18:24:34.134Z,10.18
2023-05-02T18:25:34.086Z,10.10
2023-05-02T18:26:34.088Z,10.06
2023-05-02T18:27:34.067Z,10.07
2023-05-02T18:28:34.051Z,10.06
2023-05-02T18:29:34.050Z,10.07
2023-05-02T18:30:34.032Z,10.04
2023-05-02T18:31:34.094Z,10.01
2023-05-02T18:32:34.177Z,9.96
2023-05-02T18:33:34.022Z,9.93
2023-05-02T18:34:36.138Z,9.89
2023-05-02T18:35:33.985Z,9.85
2023-05-02T18:36:34.051Z,9.81
2023-05-02T18:37:33.948Z,9.85
2023-05-02T18:38:34.080Z,9.78
2023-05-02T18:39:33.929Z,9.75
2023-05-02T18:40:33.938Z,9.74
2023-05-02T18:41:33.982Z,9.67
2023-05-02T18:42:33.991Z,9.62
2023-05-02T18:43:33.885Z,9.59
2023-05-02T18:44:33.894Z,9.53
2023-05-02T18:45:33.864Z,9.48
2023-05-02T18:46:33.889Z,9.49
2023-05-02T18:47:33.892Z,9.44
2023-05-02T18:48:33.842Z,9.40
2023-05-02T18:49:33.845Z,9.37
2023-05-02T18:50:33.806Z,9.32
2023-05-02T18:51:33.803Z,9.30
2023-05-02T18:52:33.779Z,9.27
2023-05-02T18:53:33.775Z,9.27
2023-05-02T18:54:33.905Z,9.20
2023-05-02T18:55:33.775Z,9.16
2023-05-02T18:56:33.736Z,9.13
2023-05-02T18:57:33.783Z,9.12